Accueil
METAR-TAF:

METAR-TAF

Aéroports :

Rabat, Maroc

Aéroport international de Rabat-Salé

latitude: 34-03N, longitude: 006-46W, altitude: 84 m

Observation

Le bulletin a été fait il y a 18 minutes, à 19:30 UTC
Vent 2 kt de direction variable
Température 8°C
Humidité 81%
Pression 1021 hPa
Visibilité: 8000 m
Nuages épars à une hauteur de 1300 ft
Nuages épars à une hauteur de 2000 ft

METAR: GMME 121930Z VRB02KT 8000 SCT013 SCT020 08/05 Q1021 NOSIG

Heure: 19:48 (19:48 UTC)

Prévision

Le bulletin a été fait il y a 2 heures et 48 minutes, à 17:00 UTC
Prévision valable du 12 à 18 UTC au 13 à 24 UTC
Vent 10 kt de est/nord-est
Visibilité: 6000 m
Nuages épars à une hauteur de 1300 ft
Nuages épars à une hauteur de 1600 ft
Temporairement
du 13 à 00 UTC au 13 à 06 UTC
Vent 2 kt de direction variable
Visibilité: 3000 m
brume

TAF: GMME 121700Z 1218/1324 06010KT 6000 SCT013 SCT016 TEMPO 1300/1306 VRB02KT 3000 BR

Observations et prévisions météorologiques de plus de 4000 aéroports (messages METAR et TAF).

Les stations disponibles sont représentées par des disques jaunes et rouges sur la carte.

Passer la souris dessus pour voir le nom de la station.

Cliquer dessus pour voir les observations et prévisions météorologiques.

Pour changer de carte: cliquez sur les boutons verts avec une croix noire pour zoomer, sur le bouton vert avec un tiret pour effectuer un zoom arrière, ou sur les flèches vertes pour les cartes adjacentes.


METAR-TAF: